Time;durP1;ratioP1;P1;durP2;ratioP2;P2;SDS_P1;SDS_P2;PMS_P1;PMS_P2;Temp;Humidity;BMP_temperature;BMP_pressure;BME280_temperature;BME280_humidity;BME280_pressure;Samples;Min_cycle;Max_cycle;Signal;HPM_P1;HPM_P2
2022/06/29 00:01:24;;;;;;;3.70;3.50;;;22.10;99.90;;;;;;5028774;28;21239;-85
2022/06/29 00:03:51;;;;;;;4.50;4.20;;;22.10;99.90;;;;;;5042949;28;20622;-85
2022/06/29 00:06:18;;;;;;;3.73;3.00;;;22.10;99.90;;;;;;5042438;28;20626;-88
2022/06/29 00:08:46;;;;;;;3.77;3.47;;;22.10;99.90;;;;;;5050632;28;20626;-85
2022/06/29 00:11:13;;;;;;;3.73;3.50;;;22.10;99.90;;;;;;5049803;28;20649;-85
2022/06/29 00:13:40;;;;;;;2.90;2.70;;;22.10;99.90;;;;;;5048311;28;20621;-86
2022/06/29 00:16:07;;;;;;;3.33;3.13;;;22.00;99.90;;;;;;5047959;28;20630;-84
2022/06/29 00:18:34;;;;;;;3.70;3.40;;;22.10;99.90;;;;;;5049518;28;20634;-85
2022/06/29 00:21:00;;;;;;;4.03;3.83;;;22.00;99.90;;;;;;5047775;28;20665;-85
2022/06/29 00:23:27;;;;;;;3.77;3.50;;;22.00;99.90;;;;;;5045938;28;20637;-85
2022/06/29 00:25:55;;;;;;;3.30;3.10;;;22.00;99.90;;;;;;5047488;28;20669;-85
2022/06/29 00:28:23;;;;;;;3.63;3.43;;;22.00;99.90;;;;;;5046287;28;20649;-85
2022/06/29 00:30:50;;;;;;;5.73;3.40;;;22.00;99.90;;;;;;5045116;28;20742;-85
2022/06/29 00:33:17;;;;;;;5.17;4.10;;;22.00;99.90;;;;;;5045336;28;21244;-85
2022/06/29 00:35:43;;;;;;;3.83;3.53;;;22.00;99.90;;;;;;5045358;28;21177;-85
2022/06/29 00:38:10;;;;;;;6.50;3.57;;;22.00;99.90;;;;;;5047496;28;20622;-85
2022/06/29 00:40:37;;;;;;;4.37;4.07;;;21.90;99.90;;;;;;5042723;28;20653;-85
2022/06/29 00:43:05;;;;;;;3.70;3.40;;;22.00;99.90;;;;;;5045542;28;20645;-85
2022/06/29 00:45:32;;;;;;;4.50;4.20;;;21.90;99.90;;;;;;5046881;28;20749;-85
2022/06/29 00:48:00;;;;;;;4.27;3.97;;;21.90;99.90;;;;;;5046642;28;21291;-85
2022/06/29 00:50:30;;;;;;;3.90;3.50;;;21.90;99.90;;;;;;5045369;28;20650;-85
2022/06/29 00:53:01;;;;;;;3.47;3.17;;;21.90;99.90;;;;;;5048030;28;20630;-85
2022/06/29 00:55:31;;;;;;;3.57;3.33;;;21.90;99.90;;;;;;5046266;28;20637;-85
2022/06/29 00:58:03;;;;;;;4.13;3.83;;;21.90;99.90;;;;;;5045998;28;20689;-85
2022/06/29 01:00:32;;;;;;;3.73;3.50;;;21.90;99.90;;;;;;5046339;28;20711;-86
2022/06/29 01:02:59;;;;;;;3.97;3.67;;;21.80;99.90;;;;;;5045659;28;20668;-86
2022/06/29 01:05:27;;;;;;;4.10;3.87;;;21.80;99.90;;;;;;5044609;28;20662;-87
2022/06/29 01:07:54;;;;;;;3.80;3.50;;;21.80;99.90;;;;;;5045570;28;20621;-86
2022/06/29 01:10:21;;;;;;;4.20;3.80;;;21.80;99.90;;;;;;5043854;28;20654;-87
2022/06/29 01:12:48;;;;;;;4.30;4.07;;;21.80;99.90;;;;;;5045556;28;20661;-87
2022/06/29 01:15:15;;;;;;;5.50;3.87;;;21.80;99.90;;;;;;5045390;28;20638;-86
2022/06/29 01:17:43;;;;;;;4.17;3.90;;;21.80;99.90;;;;;;5045852;28;20637;-87
2022/06/29 01:20:12;;;;;;;4.87;4.47;;;21.80;99.90;;;;;;5044619;28;20650;-86
2022/06/29 01:22:41;;;;;;;4.50;4.20;;;21.80;99.90;;;;;;5046397;28;20630;-86
2022/06/29 01:25:09;;;;;;;3.60;3.40;;;21.80;99.90;;;;;;5046339;28;20684;-86
2022/06/29 01:27:36;;;;;;;4.47;4.07;;;21.80;99.90;;;;;;5048140;28;20728;-86
2022/06/29 01:30:06;;;;;;;3.60;3.40;;;21.80;99.90;;;;;;5045642;28;20650;-87
2022/06/29 01:32:33;;;;;;;4.10;3.70;;;21.70;99.90;;;;;;5048423;28;20660;-86
2022/06/29 01:34:59;;;;;;;4.27;3.87;;;21.70;99.90;;;;;;5045505;28;20633;-87
2022/06/29 01:37:26;;;;;;;4.30;4.00;;;21.70;99.90;;;;;;5045739;28;20629;-87
2022/06/29 01:39:54;;;;;;;3.97;3.67;;;21.70;99.90;;;;;;5046475;28;20646;-88
2022/06/29 01:42:21;;;;;;;3.43;3.23;;;21.70;99.90;;;;;;5043604;28;20697;-85
2022/06/29 01:44:48;;;;;;;4.00;3.70;;;21.70;99.90;;;;;;5043098;28;20661;-86
2022/06/29 01:47:14;;;;;;;3.97;3.57;;;21.70;99.90;;;;;;5045501;28;20631;-86
2022/06/29 01:49:41;;;;;;;4.30;4.00;;;21.70;99.90;;;;;;5043555;28;20657;-85
2022/06/29 01:52:08;;;;;;;3.80;3.60;;;21.70;99.90;;;;;;5047934;28;20713;-85
2022/06/29 01:54:35;;;;;;;3.60;3.40;;;21.70;99.90;;;;;;5044256;28;20634;-85
2022/06/29 01:57:03;;;;;;;3.93;3.63;;;21.70;99.90;;;;;;5044298;28;20640;-82
2022/06/29 01:59:30;;;;;;;4.13;3.93;;;21.60;99.90;;;;;;5044282;28;20664;-82
2022/06/29 02:01:57;;;;;;;3.93;3.63;;;21.60;99.90;;;;;;5044885;28;20626;-82
2022/06/29 02:04:24;;;;;;;4.20;3.90;;;21.60;99.90;;;;;;5045275;28;20622;-82
2022/06/29 02:06:50;;;;;;;3.90;3.67;;;21.60;99.90;;;;;;5044763;28;20641;-82
2022/06/29 02:09:17;;;;;;;4.13;3.83;;;21.60;99.90;;;;;;5044097;28;20665;-82
2022/06/29 02:11:44;;;;;;;4.10;3.63;;;21.60;99.90;;;;;;5046821;28;20629;-82
2022/06/29 02:14:14;;;;;;;3.80;3.10;;;21.60;99.90;;;;;;5048764;28;20626;-82
2022/06/29 02:16:41;;;;;;;4.17;3.87;;;21.60;99.90;;;;;;5049305;28;20632;-83
2022/06/29 02:19:07;;;;;;;3.67;3.37;;;21.50;99.90;;;;;;5050498;28;20636;-82
2022/06/29 02:21:34;;;;;;;4.27;3.97;;;21.60;99.90;;;;;;5049576;28;20625;-82
2022/06/29 02:24:01;;;;;;;4.10;3.70;;;21.50;99.90;;;;;;5049210;28;20614;-84
2022/06/29 02:26:28;;;;;;;3.70;3.40;;;21.60;99.90;;;;;;5049077;28;20673;-84
2022/06/29 02:28:55;;;;;;;4.43;3.70;;;21.50;99.90;;;;;;5045756;28;20629;-86
2022/06/29 02:36:53;;;;;;;3.70;3.50;;;21.50;99.90;;;;;;5047736;28;20608;-86
2022/06/29 02:39:20;;;;;;;4.43;3.67;;;21.50;99.90;;;;;;5046615;28;21200;-86
2022/06/29 02:41:46;;;;;;;4.03;3.57;;;21.50;99.90;;;;;;5049660;28;20629;-86
2022/06/29 02:44:14;;;;;;;4.40;4.10;;;21.50;99.90;;;;;;5049824;28;20630;-87
2022/06/29 02:46:42;;;;;;;4.10;3.80;;;21.50;99.90;;;;;;5055022;28;20649;-85
2022/06/29 02:49:09;;;;;;;4.60;4.30;;;21.50;99.90;;;;;;5048526;28;20626;-86
2022/06/29 02:51:37;;;;;;;4.07;3.67;;;21.40;99.90;;;;;;5047933;28;20625;-86
2022/06/29 02:54:04;;;;;;;4.90;4.50;;;21.40;99.90;;;;;;5046197;28;20622;-86
2022/06/29 02:56:31;;;;;;;4.10;3.80;;;21.40;99.90;;;;;;5047943;28;20652;-86
2022/06/29 02:58:58;;;;;;;4.10;3.80;;;21.40;99.90;;;;;;5050975;28;20644;-86
2022/06/29 03:01:25;;;;;;;4.50;4.17;;;21.40;99.90;;;;;;5047792;28;20649;-84
2022/06/29 03:03:53;;;;;;;3.43;3.23;;;21.40;99.90;;;;;;5048396;28;20625;-83
2022/06/29 03:06:19;;;;;;;4.00;3.60;;;21.40;99.90;;;;;;5048295;28;20668;-84
2022/06/29 03:08:47;;;;;;;3.83;3.63;;;21.40;99.90;;;;;;5045248;28;20630;-84
2022/06/29 03:11:14;;;;;;;4.00;3.70;;;21.30;99.90;;;;;;5046467;28;20664;-84
2022/06/29 03:13:41;;;;;;;4.37;4.07;;;21.40;99.90;;;;;;5047276;28;20630;-84
2022/06/29 03:16:08;;;;;;;4.00;3.70;;;21.30;99.90;;;;;;5048339;28;20630;-88
2022/06/29 03:18:34;;;;;;;4.13;3.90;;;21.30;99.90;;;;;;5049153;28;20660;-88
2022/06/29 03:21:03;;;;;;;4.10;3.80;;;21.40;99.90;;;;;;5047456;28;20668;-84
2022/06/29 03:23:30;;;;;;;3.90;3.60;;;21.30;99.90;;;;;;5046874;28;20658;-84
2022/06/29 03:25:56;;;;;;;3.83;3.50;;;21.30;99.90;;;;;;5049184;28;20665;-84
2022/06/29 03:28:23;;;;;;;3.77;3.50;;;21.30;99.90;;;;;;5046441;28;21278;-84
2022/06/29 03:30:50;;;;;;;3.40;3.20;;;21.30;99.90;;;;;;5046639;28;20678;-86
2022/06/29 03:33:17;;;;;;;3.83;3.53;;;21.30;99.90;;;;;;5046659;28;20660;-87
2022/06/29 03:35:44;;;;;;;4.10;3.83;;;21.30;99.90;;;;;;5047397;28;20644;-87
2022/06/29 03:38:12;;;;;;;4.17;3.87;;;21.20;99.90;;;;;;5046754;28;20632;-87
2022/06/29 03:40:39;;;;;;;5.17;3.60;;;21.20;99.90;;;;;;5047314;28;20634;-88
2022/06/29 03:43:05;;;;;;;5.10;3.70;;;21.20;99.90;;;;;;5045288;28;20653;-87
2022/06/29 03:45:32;;;;;;;6.30;4.07;;;21.20;99.90;;;;;;5047824;28;20658;-88
2022/06/29 03:47:59;;;;;;;4.37;4.17;;;21.30;99.90;;;;;;5050837;28;21286;-89
2022/06/29 03:50:26;;;;;;;3.80;3.60;;;21.30;99.90;;;;;;5046562;28;20613;-88
2022/06/29 03:52:53;;;;;;;4.00;3.80;;;21.20;99.90;;;;;;5044322;28;20659;-89
2022/06/29 03:55:21;;;;;;;7.70;3.77;;;21.20;99.90;;;;;;5048191;28;20629;-88
2022/06/29 03:57:48;;;;;;;4.73;3.80;;;21.20;99.90;;;;;;5050308;28;20633;-86
2022/06/29 04:00:15;;;;;;;3.60;3.40;;;21.30;99.90;;;;;;5049074;28;20760;-88
2022/06/29 04:02:42;;;;;;;5.13;3.77;;;21.20;99.90;;;;;;5046653;28;20649;-88
2022/06/29 04:05:10;;;;;;;4.40;4.00;;;21.20;99.90;;;;;;5047975;28;20633;-86
2022/06/29 04:07:37;;;;;;;5.00;3.63;;;21.20;99.90;;;;;;5046951;28;20629;-86
2022/06/29 04:10:04;;;;;;;4.00;3.70;;;21.20;99.90;;;;;;5047342;28;20625;-89
2022/06/29 04:12:36;;;;;;;4.50;4.00;;;21.20;99.90;;;;;;5048926;28;20669;-86
2022/06/29 04:15:05;;;;;;;3.90;3.60;;;21.20;99.90;;;;;;5045554;28;21031;-86
2022/06/29 04:17:32;;;;;;;4.20;3.90;;;21.30;99.90;;;;;;5047538;28;20617;-87
2022/06/29 04:20:00;;;;;;;4.10;3.90;;;21.20;99.90;;;;;;5047929;28;20638;-86
2022/06/29 04:22:28;;;;;;;4.47;4.17;;;21.20;99.90;;;;;;5048324;28;20676;-87
2022/06/29 04:24:55;;;;;;;4.60;4.30;;;21.30;99.90;;;;;;5048434;28;20622;-88
2022/06/29 04:27:22;;;;;;;5.13;4.73;;;21.20;99.90;;;;;;5047739;28;20653;-88
2022/06/29 04:29:50;;;;;;;5.23;4.70;;;21.20;99.90;;;;;;5047060;28;20626;-87
2022/06/29 04:32:17;;;;;;;4.90;4.60;;;21.20;99.90;;;;;;5043342;28;21275;-87
2022/06/29 04:34:44;;;;;;;4.40;4.07;;;21.30;99.90;;;;;;5049078;28;21284;-88
2022/06/29 04:37:11;;;;;;;4.00;3.80;;;21.20;99.90;;;;;;5045453;28;20996;-82
2022/06/29 04:39:38;;;;;;;4.80;4.40;;;21.20;99.90;;;;;;5047502;28;20665;-82
2022/06/29 04:42:05;;;;;;;5.63;5.13;;;20.80;99.90;;;;;;5044981;28;20602;-82
2022/06/29 04:44:32;;;;;;;6.03;5.27;;;20.90;99.90;;;;;;5044871;28;21073;-83
2022/06/29 04:47:00;;;;;;;7.97;5.67;;;20.90;99.90;;;;;;5044138;28;20677;-83
2022/06/29 04:49:27;;;;;;;6.83;5.73;;;20.80;99.90;;;;;;5043486;28;20638;-83
2022/06/29 04:51:55;;;;;;;5.50;5.00;;;20.80;99.90;;;;;;5044595;28;20629;-84
2022/06/29 04:54:22;;;;;;;6.37;5.40;;;20.70;99.90;;;;;;5044971;28;20641;-84
2022/06/29 04:56:49;;;;;;;8.13;5.10;;;20.60;99.90;;;;;;5043060;28;20626;-85
2022/06/29 04:59:16;;;;;;;6.00;5.13;;;20.60;99.90;;;;;;5042669;28;20626;-85
2022/06/29 05:01:43;;;;;;;4.80;4.40;;;20.60;99.90;;;;;;5043482;28;20638;-84
2022/06/29 05:04:11;;;;;;;7.70;5.50;;;20.50;99.90;;;;;;5045600;28;20688;-84
2022/06/29 05:06:38;;;;;;;6.00;5.50;;;20.00;99.90;;;;;;5045638;28;21053;-84
2022/06/29 05:09:05;;;;;;;7.13;6.53;;;19.50;99.90;;;;;;5043575;28;20646;-84
2022/06/29 05:11:32;;;;;;;5.70;5.37;;;19.00;99.90;;;;;;5044063;28;20632;-84
2022/06/29 05:14:00;;;;;;;5.43;5.03;;;19.10;99.90;;;;;;5041189;28;20745;-83
2022/06/29 05:16:27;;;;;;;6.97;5.33;;;19.40;99.90;;;;;;5043880;28;20618;-83
2022/06/29 05:18:54;;;;;;;6.80;6.30;;;19.50;99.90;;;;;;5042727;28;20668;-83
2022/06/29 05:21:22;;;;;;;6.63;6.03;;;19.60;99.90;;;;;;5044301;28;20841;-83
2022/06/29 05:23:48;;;;;;;6.60;5.80;;;19.50;99.90;;;;;;5043554;28;20668;-82
2022/06/29 05:26:16;;;;;;;9.03;6.60;;;19.40;99.90;;;;;;5043077;28;20674;-83
2022/06/29 05:28:42;;;;;;;8.00;6.50;;;19.50;99.90;;;;;;5041683;28;20673;-83
2022/06/29 05:31:10;;;;;;;6.90;6.30;;;19.00;99.90;;;;;;5042259;28;20644;-85
2022/06/29 05:33:37;;;;;;;5.83;5.33;;;18.70;99.90;;;;;;5043607;28;20677;-84
2022/06/29 05:36:04;;;;;;;7.23;6.80;;;18.60;99.90;;;;;;5045506;28;20629;-83
2022/06/29 05:38:33;;;;;;;6.30;5.70;;;18.40;99.90;;;;;;5046597;28;20637;-83
2022/06/29 05:41:01;;;;;;;8.57;4.90;;;18.50;99.90;;;;;;5045796;28;20630;-84
2022/06/29 05:43:28;;;;;;;7.90;7.37;;;18.90;99.90;;;;;;5043959;28;20703;-84
2022/06/29 05:45:55;;;;;;;6.07;5.57;;;18.60;99.90;;;;;;5043231;28;20669;-84
2022/06/29 05:48:22;;;;;;;5.83;5.07;;;18.30;99.90;;;;;;5043188;28;21275;-84
2022/06/29 05:50:49;;;;;;;5.57;5.03;;;18.60;99.90;;;;;;5044533;28;20622;-84
2022/06/29 05:53:16;;;;;;;6.47;5.97;;;18.80;99.90;;;;;;5043971;28;20674;-84
2022/06/29 05:55:44;;;;;;;6.63;5.93;;;19.10;99.90;;;;;;5044499;28;21065;-84
2022/06/29 05:58:15;;;;;;;5.60;5.30;;;19.30;99.90;;;;;;5044202;28;20796;-84
2022/06/29 06:00:42;;;;;;;7.40;6.30;;;19.40;99.90;;;;;;5043619;28;21351;-84
2022/06/29 06:03:09;;;;;;;6.70;6.30;;;19.10;99.90;;;;;;5044288;28;20650;-82
2022/06/29 06:05:36;;;;;;;7.73;7.20;;;19.00;99.90;;;;;;5026895;28;21040;-82
2022/06/29 06:08:03;;;;;;;7.53;7.07;;;18.90;99.90;;;;;;5044730;28;20622;-82
2022/06/29 06:10:30;;;;;;;9.43;7.73;;;18.90;99.90;;;;;;5043657;28;21164;-82
2022/06/29 06:12:58;;;;;;;8.07;7.57;;;18.80;99.90;;;;;;5042698;28;21042;-82
2022/06/29 06:15:26;;;;;;;7.67;7.03;;;18.70;99.90;;;;;;5044734;28;20675;-83
2022/06/29 06:17:53;;;;;;;7.30;6.70;;;18.60;99.90;;;;;;5043954;28;20610;-82
2022/06/29 06:20:20;;;;;;;8.23;7.47;;;18.50;99.90;;;;;;5045502;28;20626;-83
2022/06/29 06:22:47;;;;;;;8.37;7.77;;;18.50;99.90;;;;;;5044909;28;20660;-82
2022/06/29 06:25:14;;;;;;;8.07;7.30;;;18.50;99.90;;;;;;5044704;28;20622;-82
2022/06/29 06:27:41;;;;;;;7.27;6.67;;;18.50;99.90;;;;;;5041474;28;20669;-82
2022/06/29 06:30:10;;;;;;;7.53;6.80;;;18.30;99.90;;;;;;5045548;28;20729;-82
2022/06/29 06:32:37;;;;;;;9.00;7.90;;;18.30;99.90;;;;;;5032445;28;20682;-82
2022/06/29 06:35:05;;;;;;;9.60;7.70;;;18.30;99.90;;;;;;5042247;28;20950;-83
2022/06/29 06:37:31;;;;;;;9.77;7.90;;;18.30;99.90;;;;;;5040086;28;20621;-83
2022/06/29 06:42:43;;;;;;;7.87;7.13;;;18.50;99.90;;;;;;5031260;28;20764;-81
2022/06/29 06:45:11;;;;;;;8.33;7.50;;;18.50;99.90;;;;;;5043929;28;20993;-81
2022/06/29 06:47:38;;;;;;;7.80;7.10;;;18.30;99.90;;;;;;5042797;28;20666;-82
2022/06/29 06:50:06;;;;;;;8.43;7.80;;;18.40;99.90;;;;;;5046094;28;20681;-81
2022/06/29 06:52:33;;;;;;;7.80;7.00;;;18.50;99.90;;;;;;5043694;28;20676;-82
2022/06/29 06:55:00;;;;;;;7.60;6.93;;;18.60;99.90;;;;;;5041308;28;20637;-81
2022/06/29 06:57:29;;;;;;;7.93;7.30;;;18.60;99.90;;;;;;5049376;28;20618;-81
2022/06/29 06:59:55;;;;;;;8.60;7.87;;;18.60;99.90;;;;;;5046266;28;20629;-82
2022/06/29 07:02:23;;;;;;;7.87;7.37;;;18.70;99.90;;;;;;5042491;28;20654;-81
2022/06/29 07:04:50;;;;;;;8.27;7.60;;;18.80;99.90;;;;;;5046032;28;20626;-81
2022/06/29 07:07:18;;;;;;;9.00;7.23;;;19.00;99.90;;;;;;5042046;28;20680;-81
2022/06/29 07:09:45;;;;;;;7.00;6.47;;;19.10;99.90;;;;;;5046249;28;20621;-82
2022/06/29 07:12:12;;;;;;;7.73;7.23;;;19.40;99.90;;;;;;5045433;28;20653;-81
2022/06/29 07:14:39;;;;;;;7.47;6.97;;;19.60;99.90;;;;;;5046380;28;20989;-81
2022/06/29 07:17:06;;;;;;;6.77;6.27;;;19.70;99.90;;;;;;5046378;28;20665;-82
2022/06/29 07:19:34;;;;;;;7.23;6.73;;;19.70;99.90;;;;;;5050398;28;20685;-81
2022/06/29 07:22:01;;;;;;;7.10;6.60;;;19.90;99.90;;;;;;5039586;28;21246;-81
2022/06/29 07:24:28;;;;;;;9.47;6.80;;;20.00;99.90;;;;;;5050015;28;20628;-81
2022/06/29 07:26:56;;;;;;;7.00;6.40;;;20.20;99.90;;;;;;5044419;28;20688;-81
2022/06/29 07:29:23;;;;;;;7.80;5.80;;;20.30;99.90;;;;;;5047981;28;20648;-81
2022/06/29 07:31:50;;;;;;;6.83;6.43;;;20.30;99.90;;;;;;5047610;28;20636;-81
2022/06/29 07:34:17;;;;;;;7.57;6.87;;;20.40;99.90;;;;;;5042136;28;21154;-82
2022/06/29 07:36:45;;;;;;;6.80;6.30;;;20.60;99.90;;;;;;5049091;28;21029;-82
2022/06/29 07:39:12;;;;;;;6.63;6.13;;;20.70;99.90;;;;;;5050888;28;21187;-82
2022/06/29 07:41:39;;;;;;;7.50;6.93;;;20.80;99.90;;;;;;5046354;28;20630;-82
2022/06/29 07:44:06;;;;;;;7.40;6.80;;;20.90;99.90;;;;;;5045162;28;20676;-83
2022/06/29 07:46:32;;;;;;;6.40;5.90;;;20.80;99.90;;;;;;5047329;28;20674;-82
2022/06/29 07:49:00;;;;;;;7.90;6.00;;;21.00;99.90;;;;;;5045234;28;20622;-83
2022/06/29 07:51:27;;;;;;;7.00;6.40;;;21.00;99.90;;;;;;5044870;28;20664;-82
2022/06/29 07:53:55;;;;;;;6.77;6.20;;;21.20;99.90;;;;;;5040257;28;20649;-82
2022/06/29 07:56:23;;;;;;;6.63;6.13;;;21.40;99.90;;;;;;5038439;28;20634;-82
2022/06/29 07:58:51;;;;;;;5.50;5.00;;;21.60;99.90;;;;;;5045886;28;21156;-82
2022/06/29 08:01:17;;;;;;;7.10;6.60;;;21.70;99.90;;;;;;5044356;28;20633;-82
2022/06/29 08:03:44;;;;;;;7.67;6.83;;;21.80;99.90;;;;;;5044460;28;21207;-82
2022/06/29 08:06:11;;;;;;;7.87;6.93;;;21.80;99.90;;;;;;5047693;28;20719;-82
2022/06/29 08:08:38;;;;;;;6.47;5.93;;;21.90;99.90;;;;;;5041908;28;20677;-81
2022/06/29 08:11:06;;;;;;;10.37;7.20;;;22.00;99.90;;;;;;5045970;28;20629;-82
2022/06/29 08:13:33;;;;;;;7.20;6.60;;;22.20;99.90;;;;;;5046847;28;20680;-82
2022/06/29 08:16:00;;;;;;;11.77;6.97;;;22.10;99.90;;;;;;5046216;28;20676;-82
2022/06/29 08:18:27;;;;;;;6.90;6.40;;;22.00;99.90;;;;;;5047670;28;20621;-82
2022/06/29 08:20:54;;;;;;;8.20;7.40;;;22.00;99.90;;;;;;5044076;28;21108;-82
2022/06/29 08:23:20;;;;;;;6.37;5.97;;;22.30;99.90;;;;;;5041929;28;20700;-82
2022/06/29 08:25:47;;;;;;;7.47;6.70;;;22.30;99.90;;;;;;5042221;28;20622;-82
2022/06/29 08:28:15;;;;;;;9.73;6.20;;;22.60;99.90;;;;;;5042189;28;20672;-82
2022/06/29 08:30:42;;;;;;;7.47;6.30;;;22.60;99.90;;;;;;5043811;28;21317;-82
2022/06/29 08:33:09;;;;;;;5.83;5.23;;;22.80;99.90;;;;;;5042304;28;20649;-82
2022/06/29 08:35:36;;;;;;;6.33;5.83;;;22.90;99.90;;;;;;5044330;28;20724;-82
2022/06/29 08:38:05;;;;;;;6.40;5.80;;;23.00;99.90;;;;;;5040164;28;20648;-82
2022/06/29 08:40:42;;;;;;;6.70;6.03;;;23.20;99.90;;;;;;5043167;28;20855;-83
2022/06/29 08:43:12;;;;;;;7.90;6.27;;;23.30;99.90;;;;;;5045327;28;20790;-82
2022/06/29 08:45:43;;;;;;;6.20;5.80;;;23.40;99.90;;;;;;5048517;28;20650;-82
2022/06/29 08:48:11;;;;;;;6.07;5.53;;;23.40;99.90;;;;;;5041851;28;20646;-82
2022/06/29 08:50:39;;;;;;;6.97;6.27;;;23.50;99.90;;;;;;5044982;28;20634;-82
2022/06/29 08:53:07;;;;;;;5.73;5.23;;;23.60;99.90;;;;;;5043491;28;20645;-82
2022/06/29 08:55:37;;;;;;;6.90;5.53;;;23.60;99.90;;;;;;5041253;28;20633;-81
2022/06/29 08:58:05;;;;;;;6.13;5.63;;;23.70;99.90;;;;;;5042647;28;20623;-82
2022/06/29 09:00:36;;;;;;;6.13;5.13;;;23.80;99.90;;;;;;5042996;28;20671;-82
2022/06/29 09:03:05;;;;;;;6.47;5.90;;;23.90;99.90;;;;;;5042934;28;21005;-82
2022/06/29 09:05:33;;;;;;;5.93;5.53;;;24.00;99.90;;;;;;5042239;28;20634;-82
2022/06/29 09:08:00;;;;;;;4.97;4.60;;;24.10;99.90;;;;;;5040837;28;21025;-82
2022/06/29 09:10:30;;;;;;;5.17;4.80;;;24.10;99.90;;;;;;5043279;28;20634;-82
2022/06/29 09:12:58;;;;;;;5.60;5.10;;;24.30;99.90;;;;;;5040732;28;20770;-82
2022/06/29 09:15:32;;;;;;;5.30;5.00;;;24.50;99.90;;;;;;5043572;28;20633;-82
2022/06/29 09:17:59;;;;;;;4.40;4.10;;;24.60;99.90;;;;;;5043433;28;21263;-82
2022/06/29 09:20:37;;;;;;;4.97;4.57;;;24.60;99.90;;;;;;5044195;28;20644;-82
2022/06/29 09:23:04;;;;;;;6.33;5.83;;;24.60;99.90;;;;;;5039458;28;20656;-82
2022/06/29 09:25:32;;;;;;;5.87;4.60;;;24.60;99.90;;;;;;5041663;28;20626;-82
2022/06/29 09:28:00;;;;;;;5.10;4.60;;;24.80;99.90;;;;;;5042358;28;21636;-82
2022/06/29 09:30:28;;;;;;;4.47;4.17;;;24.90;99.90;;;;;;5048430;28;20642;-82
2022/06/29 09:33:03;;;;;;;5.47;5.07;;;25.10;99.90;;;;;;5046129;28;20667;-82
2022/06/29 09:35:31;;;;;;;5.40;5.00;;;25.20;99.90;;;;;;5044038;28;20637;-82
2022/06/29 09:38:20;;;;;;;5.17;4.67;;;25.20;99.90;;;;;;5038042;28;20652;-82
2022/06/29 09:41:00;;;;;;;5.10;4.60;;;25.30;99.90;;;;;;5032645;28;20658;-82
2022/06/29 09:43:28;;;;;;;5.53;5.00;;;25.50;99.90;;;;;;5039407;28;20657;-83
2022/06/29 09:45:55;;;;;;;5.07;4.70;;;25.70;99.90;;;;;;5043138;28;21236;-82
2022/06/29 09:48:25;;;;;;;4.67;4.33;;;25.70;99.90;;;;;;5043091;28;20673;-82
2022/06/29 09:50:54;;;;;;;4.33;4.07;;;26.00;99.90;;;;;;5043388;28;20629;-82
2022/06/29 09:53:25;;;;;;;6.03;5.00;;;26.30;99.90;;;;;;5042582;28;21016;-82
2022/06/29 09:55:55;;;;;;;4.87;4.57;;;26.40;99.90;;;;;;5043853;28;20609;-82
2022/06/29 09:58:30;;;;;;;5.20;4.90;;;26.40;99.90;;;;;;5040209;28;20657;-82
2022/06/29 10:03:44;;;;;;;4.73;4.43;;;26.50;99.90;;;;;;5042274;28;20629;-82
2022/06/29 10:06:17;;;;;;;5.10;4.80;;;26.60;99.50;;;;;;5042830;28;20725;-82
2022/06/29 10:08:45;;;;;;;4.70;4.40;;;26.60;99.60;;;;;;5041344;28;20670;-82
2022/06/29 10:14:18;;;;;;;4.97;4.57;;;26.90;99.40;;;;;;5042119;28;20638;-82
2022/06/29 10:16:52;;;;;;;5.10;4.70;;;27.00;99.60;;;;;;5043694;28;20610;-82
2022/06/29 10:19:42;;;;;;;5.30;3.90;;;27.10;99.30;;;;;;5040840;28;20613;-82
2022/06/29 10:22:10;;;;;;;4.30;4.00;;;27.30;99.90;;;;;;5043802;28;21220;-82
2022/06/29 10:24:38;;;;;;;4.23;4.03;;;27.50;99.90;;;;;;5042727;28;20641;-81
2022/06/29 10:27:08;;;;;;;3.87;3.47;;;27.60;99.00;;;;;;5041894;28;20782;-82
2022/06/29 10:29:37;;;;;;;5.87;4.60;;;27.70;97.30;;;;;;5043115;28;20637;-82
2022/06/29 10:32:15;;;;;;;5.00;3.77;;;27.70;97.80;;;;;;5045791;28;20619;-81
2022/06/29 10:37:30;;;;;;;3.97;3.70;;;27.90;97.10;;;;;;5044855;28;20627;-81
2022/06/29 10:40:04;;;;;;;4.20;3.90;;;28.20;97.50;;;;;;5044174;28;20645;-81
2022/06/29 10:45:33;;;;;;;5.00;3.97;;;28.50;96.00;;;;;;5043948;28;20574;-82
2022/06/29 10:48:24;;;;;;;4.30;4.00;;;28.40;96.60;;;;;;5039356;28;20677;-81
2022/06/29 10:50:52;;;;;;;4.40;4.07;;;28.20;95.90;;;;;;5037366;28;20761;-81
2022/06/29 10:53:22;;;;;;;3.90;3.63;;;28.20;96.70;;;;;;5043450;28;20660;-81
2022/06/29 10:55:52;;;;;;;7.10;4.03;;;28.10;97.30;;;;;;5045337;28;20676;-81
2022/06/29 10:58:20;;;;;;;4.70;3.70;;;28.00;96.70;;;;;;5042728;28;20631;-81
2022/06/29 11:00:48;;;;;;;4.13;3.70;;;27.70;96.80;;;;;;5049457;28;20626;-81
2022/06/29 11:03:17;;;;;;;4.70;4.30;;;27.50;97.30;;;;;;5048399;28;21006;-82
2022/06/29 11:14:02;;;;;;;4.87;3.87;;;27.20;96.80;;;;;;5041849;28;20660;-81
2022/06/29 11:16:34;;;;;;;5.20;3.80;;;27.20;97.60;;;;;;5045369;28;20627;-82
2022/06/29 11:19:02;;;;;;;4.60;4.20;;;27.20;97.20;;;;;;5043178;28;20625;-82
2022/06/29 11:21:29;;;;;;;5.50;4.10;;;27.10;96.40;;;;;;5045502;28;20630;-82
2022/06/29 11:24:02;;;;;;;4.80;4.50;;;27.10;96.60;;;;;;5041959;28;20657;-83
2022/06/29 11:26:30;;;;;;;5.20;4.60;;;27.10;97.20;;;;;;5044756;28;20622;-82
2022/06/29 11:28:58;;;;;;;5.40;5.00;;;27.20;97.10;;;;;;5042886;28;21149;-82
2022/06/29 11:31:26;;;;;;;5.30;4.90;;;27.40;97.20;;;;;;5043744;28;20638;-82
2022/06/29 11:33:54;;;;;;;5.00;4.50;;;27.50;96.80;;;;;;5043672;28;20663;-82
2022/06/29 11:36:23;;;;;;;5.23;4.83;;;27.60;96.50;;;;;;5048969;28;20628;-82
2022/06/29 11:38:51;;;;;;;5.27;4.77;;;27.80;96.20;;;;;;5045418;28;20618;-82
2022/06/29 11:41:22;;;;;;;4.63;4.33;;;27.90;95.80;;;;;;5044543;28;21635;-82
2022/06/29 11:44:03;;;;;;;4.37;4.10;;;28.00;95.70;;;;;;5042027;28;20713;-82
2022/06/29 11:46:32;;;;;;;4.83;4.23;;;27.90;95.40;;;;;;5045096;28;21353;-83
2022/06/29 11:51:57;;;;;;;4.60;4.27;;;28.00;96.40;;;;;;4984213;28;21085;-82
2022/06/29 11:54:38;;;;;;;4.43;4.10;;;28.20;96.20;;;;;;5026916;28;20638;-83
2022/06/29 11:57:11;;;;;;;4.53;4.13;;;28.40;96.30;;;;;;5041369;28;20618;-82
2022/06/29 11:59:40;;;;;;;4.10;3.80;;;28.60;96.30;;;;;;5043380;28;20669;-83
2022/06/29 12:02:08;;;;;;;4.13;3.83;;;28.70;95.30;;;;;;5043323;28;20684;-82
2022/06/29 12:04:37;;;;;;;5.03;4.27;;;28.90;95.10;;;;;;5050067;28;20731;-83
2022/06/29 12:07:05;;;;;;;4.57;4.17;;;29.10;95.00;;;;;;5045645;28;20641;-82
2022/06/29 12:09:32;;;;;;;4.40;4.10;;;29.30;94.90;;;;;;5046601;28;21307;-83
2022/06/29 12:12:00;;;;;;;4.73;4.20;;;29.50;95.00;;;;;;5042717;28;20638;-83
2022/06/29 12:14:28;;;;;;;5.23;3.83;;;29.70;94.90;;;;;;5044475;28;20637;-83
2022/06/29 12:16:55;;;;;;;4.13;3.80;;;30.00;93.70;;;;;;5044035;28;21003;-83
2022/06/29 12:19:22;;;;;;;4.27;3.87;;;30.10;92.70;;;;;;5044764;28;21512;-83
2022/06/29 12:21:49;;;;;;;4.57;3.60;;;30.40;92.90;;;;;;5042862;28;20640;-82
2022/06/29 12:24:16;;;;;;;4.43;4.03;;;30.70;92.00;;;;;;5045021;28;20634;-82
2022/06/29 12:26:44;;;;;;;3.60;3.30;;;31.30;91.80;;;;;;5044848;28;20645;-82
2022/06/29 12:29:13;;;;;;;4.57;4.17;;;31.70;91.50;;;;;;5041449;28;20725;-83
2022/06/29 12:31:42;;;;;;;5.23;4.03;;;32.10;90.00;;;;;;5044626;28;21027;-82
2022/06/29 12:34:09;;;;;;;4.37;3.30;;;32.50;86.90;;;;;;5042384;28;20673;-82
2022/06/29 12:36:37;;;;;;;5.97;3.90;;;32.60;85.40;;;;;;5044359;28;20645;-82
2022/06/29 12:39:04;;;;;;;4.33;4.03;;;32.80;84.50;;;;;;5043880;28;21389;-82
2022/06/29 12:41:31;;;;;;;3.77;3.43;;;33.30;84.10;;;;;;5044267;28;20628;-83
2022/06/29 12:44:02;;;;;;;3.60;3.30;;;33.60;81.80;;;;;;5041801;28;20637;-82
2022/06/29 12:46:30;;;;;;;3.33;3.03;;;33.60;80.60;;;;;;5043367;28;20795;-82
2022/06/29 12:49:00;;;;;;;4.30;3.47;;;33.80;80.40;;;;;;5041379;28;20681;-82
2022/06/29 12:51:28;;;;;;;7.20;4.27;;;34.20;79.50;;;;;;5043793;28;20641;-82
2022/06/29 12:53:55;;;;;;;4.43;3.73;;;34.40;78.00;;;;;;5041658;28;21153;-82
2022/06/29 12:56:22;;;;;;;4.07;3.67;;;34.50;76.00;;;;;;5041303;28;20655;-82
2022/06/29 12:58:49;;;;;;;4.07;3.50;;;34.60;75.20;;;;;;5042953;28;20659;-82
2022/06/29 13:01:15;;;;;;;4.90;4.00;;;34.70;73.00;;;;;;5045071;28;20648;-82
2022/06/29 13:03:42;;;;;;;5.17;4.40;;;34.60;72.20;;;;;;5042045;28;20625;-83
2022/06/29 13:06:10;;;;;;;5.47;3.57;;;34.50;71.90;;;;;;5042541;28;20640;-82
2022/06/29 13:08:37;;;;;;;3.80;3.50;;;34.90;71.20;;;;;;5031575;28;20777;-82
2022/06/29 13:11:04;;;;;;;5.50;3.67;;;35.40;71.90;;;;;;5032009;28;20703;-82
2022/06/29 13:13:34;;;;;;;4.00;3.60;;;35.60;69.60;;;;;;5028328;28;20630;-82
2022/06/29 13:16:01;;;;;;;3.60;3.30;;;35.60;68.30;;;;;;5038348;28;20692;-82
2022/06/29 13:18:29;;;;;;;4.07;3.33;;;35.80;66.20;;;;;;5042482;28;20280;-82
2022/06/29 13:20:55;;;;;;;3.93;3.00;;;35.50;66.40;;;;;;5043951;28;20203;-82
2022/06/29 13:23:24;;;;;;;3.20;3.00;;;35.40;66.80;;;;;;5042682;28;20211;-83